AAL1792 KONT-KPHX
Flight info
| Callsign | AAL1792 |
|---|---|
| Flight time | 0h 57m |
| Altitude | 27000 |
| Route | RAJEE4 MTBAL CNERY BLH HYDRR1 |
| Aircraft | A320/M-SDE3FGHIRWY/LB1 |
Departure
| Time | 2026-05-07 02:21 |
|---|---|
| Airport | Ontario International Airport (KONT) |
Arrival
| Time | 2026-05-07 03:18 |
|---|---|
| Airport | Phoenix Sky Harbor International Airport (KPHX) |
| Time | Latitude | Longitude | Altitude | Speed | Heading |
|---|---|---|---|---|---|
| 2026-05-07 00:58 | 34.05981 | -117.58689 | 944 ft | 0 kts | 360° |
| 2026-05-07 01:21 | 34.05980 | -117.58689 | 944 ft | 0 kts | 0° |
| 2026-05-07 02:01 | 34.05979 | -117.58689 | 944 ft | 0 kts | 0° |
| 2026-05-07 02:13 | 34.05961 | -117.58689 | 944 ft | 4 kts | 359° |
| 2026-05-07 02:13 | 34.05934 | -117.58690 | 944 ft | 4 kts | 7° |
| 2026-05-07 02:13 | 34.05909 | -117.58696 | 944 ft | 2 kts | 15° |
| 2026-05-07 02:13 | 34.05907 | -117.58697 | 944 ft | 1 kts | 15° |
| 2026-05-07 02:16 | 34.05909 | -117.58693 | 943 ft | 1 kts | 41° |
| 2026-05-07 02:16 | 34.05900 | -117.58680 | 944 ft | 3 kts | 160° |
| 2026-05-07 02:16 | 34.05873 | -117.58683 | 942 ft | 5 kts | 182° |
| 2026-05-07 02:17 | 34.05832 | -117.58684 | 945 ft | 8 kts | 182° |
| 2026-05-07 02:17 | 34.05799 | -117.58632 | 945 ft | 10 kts | 89° |
| 2026-05-07 02:17 | 34.05800 | -117.58541 | 945 ft | 12 kts | 89° |
| 2026-05-07 02:17 | 34.05801 | -117.58430 | 944 ft | 14 kts | 90° |
| 2026-05-07 02:18 | 34.05800 | -117.58330 | 944 ft | 9 kts | 90° |
| 2026-05-07 02:18 | 34.05790 | -117.58286 | 944 ft | 0 kts | 137° |
| 2026-05-07 02:19 | 34.05781 | -117.58279 | 944 ft | 5 kts | 149° |
| 2026-05-07 02:19 | 34.05731 | -117.58271 | 944 ft | 10 kts | 178° |
| 2026-05-07 02:19 | 34.05687 | -117.58322 | 945 ft | 11 kts | 272° |
| 2026-05-07 02:19 | 34.05688 | -117.58335 | 945 ft | 0 kts | 272° |
| 2026-05-07 02:20 | 34.05689 | -117.58408 | 946 ft | 36 kts | 270° |
| 2026-05-07 02:20 | 34.05686 | -117.58997 | 945 ft | 102 kts | 270° |
| 2026-05-07 02:20 | 34.05685 | -117.60049 | 944 ft | 150 kts | 270° |
| 2026-05-07 02:20 | 34.05678 | -117.61349 | 1469 ft | 149 kts | 270° |
| 2026-05-07 02:21 | 34.05433 | -117.62549 | 2036 ft | 152 kts | 228° |
| 2026-05-07 02:21 | 34.04517 | -117.63162 | 2566 ft | 159 kts | 189° |
| 2026-05-07 02:21 | 34.03390 | -117.62879 | 2861 ft | 181 kts | 149° |
| 2026-05-07 02:21 | 34.02283 | -117.61955 | 3090 ft | 205 kts | 146° |
| 2026-05-07 02:22 | 34.01058 | -117.60895 | 3332 ft | 229 kts | 146° |
| 2026-05-07 02:22 | 33.99692 | -117.59716 | 3633 ft | 254 kts | 145° |
| 2026-05-07 02:22 | 33.98194 | -117.58425 | 4194 ft | 271 kts | 145° |
| 2026-05-07 02:22 | 33.96640 | -117.57096 | 5034 ft | 276 kts | 146° |
| 2026-05-07 02:23 | 33.95059 | -117.55751 | 5915 ft | 280 kts | 146° |
| 2026-05-07 02:23 | 33.93455 | -117.54393 | 6685 ft | 286 kts | 145° |
| 2026-05-07 02:23 | 33.91844 | -117.53030 | 6943 ft | 287 kts | 145° |
| 2026-05-07 02:23 | 33.90210 | -117.51650 | 7017 ft | 287 kts | 145° |
| 2026-05-07 02:24 | 33.88558 | -117.50255 | 7569 ft | 294 kts | 145° |
| 2026-05-07 02:24 | 33.86886 | -117.48846 | 8485 ft | 293 kts | 145° |
| 2026-05-07 02:24 | 33.85206 | -117.47433 | 9314 ft | 296 kts | 145° |
| 2026-05-07 02:24 | 33.83506 | -117.46008 | 10088 ft | 300 kts | 144° |
| 2026-05-07 02:25 | 33.81742 | -117.44532 | 10459 ft | 321 kts | 143° |
| 2026-05-07 02:25 | 33.79842 | -117.42946 | 10665 ft | 344 kts | 143° |
| 2026-05-07 02:25 | 33.77827 | -117.41260 | 11008 ft | 360 kts | 143° |
| 2026-05-07 02:25 | 33.75781 | -117.39545 | 11644 ft | 366 kts | 143° |
| 2026-05-07 02:26 | 33.73816 | -117.37592 | 12328 ft | 367 kts | 131° |
| 2026-05-07 02:26 | 33.72235 | -117.35196 | 13011 ft | 366 kts | 119° |
| 2026-05-07 02:26 | 33.71109 | -117.32460 | 13680 ft | 365 kts | 107° |
| 2026-05-07 02:26 | 33.70490 | -117.29509 | 14335 ft | 364 kts | 95° |
| 2026-05-07 02:27 | 33.70208 | -117.26483 | 14978 ft | 366 kts | 93° |
| 2026-05-07 02:27 | 33.69925 | -117.23431 | 15600 ft | 369 kts | 93° |
| 2026-05-07 02:27 | 33.69635 | -117.20359 | 16207 ft | 372 kts | 93° |
| 2026-05-07 02:27 | 33.69346 | -117.17306 | 16810 ft | 374 kts | 93° |
| 2026-05-07 02:28 | 33.69051 | -117.14188 | 17426 ft | 377 kts | 93° |
| 2026-05-07 02:28 | 33.68753 | -117.11044 | 18031 ft | 381 kts | 92° |
| 2026-05-07 02:28 | 33.68449 | -117.07876 | 18651 ft | 384 kts | 93° |
| 2026-05-07 02:28 | 33.68137 | -117.04682 | 19267 ft | 387 kts | 93° |
| 2026-05-07 02:29 | 33.67820 | -117.01459 | 19867 ft | 390 kts | 93° |
| 2026-05-07 02:29 | 33.67503 | -116.98212 | 20460 ft | 393 kts | 93° |
| 2026-05-07 02:29 | 33.67184 | -116.94941 | 21019 ft | 396 kts | 93° |
| 2026-05-07 02:29 | 33.66868 | -116.91686 | 21533 ft | 399 kts | 93° |
| 2026-05-07 02:30 | 33.66543 | -116.88363 | 22032 ft | 402 kts | 93° |
| 2026-05-07 02:30 | 33.66214 | -116.85022 | 22503 ft | 404 kts | 93° |
| 2026-05-07 02:30 | 33.65882 | -116.81657 | 22966 ft | 407 kts | 93° |
| 2026-05-07 02:30 | 33.65548 | -116.78275 | 23380 ft | 410 kts | 93° |
| 2026-05-07 02:31 | 33.65212 | -116.74864 | 23788 ft | 413 kts | 92° |
| 2026-05-07 02:31 | 33.64876 | -116.71438 | 24222 ft | 415 kts | 93° |
| 2026-05-07 02:31 | 33.64538 | -116.67986 | 24630 ft | 417 kts | 92° |
| 2026-05-07 02:31 | 33.64199 | -116.64526 | 25062 ft | 419 kts | 93° |
| 2026-05-07 02:32 | 33.63854 | -116.61041 | 25459 ft | 421 kts | 92° |
| 2026-05-07 02:32 | 33.63513 | -116.57599 | 25848 ft | 422 kts | 93° |
| 2026-05-07 02:32 | 33.63165 | -116.54096 | 26244 ft | 424 kts | 93° |
| 2026-05-07 02:32 | 33.62813 | -116.50578 | 26631 ft | 426 kts | 92° |
| 2026-05-07 02:33 | 33.62458 | -116.47050 | 26928 ft | 427 kts | 93° |
| 2026-05-07 02:33 | 33.62101 | -116.43511 | 26980 ft | 428 kts | 92° |
| 2026-05-07 02:33 | 33.61741 | -116.39963 | 26977 ft | 428 kts | 92° |
| 2026-05-07 02:33 | 33.61381 | -116.36414 | 26969 ft | 429 kts | 93° |
| 2026-05-07 02:34 | 33.61081 | -116.32866 | 26973 ft | 426 kts | 88° |
| 2026-05-07 02:34 | 33.60988 | -116.29315 | 26965 ft | 426 kts | 88° |
| 2026-05-07 02:34 | 33.60901 | -116.25811 | 26961 ft | 426 kts | 88° |
| 2026-05-07 02:34 | 33.60814 | -116.22261 | 26951 ft | 426 kts | 88° |
| 2026-05-07 02:35 | 33.60727 | -116.18709 | 26953 ft | 427 kts | 88° |
| 2026-05-07 02:35 | 33.60637 | -116.15150 | 26948 ft | 427 kts | 88° |
| 2026-05-07 02:35 | 33.60545 | -116.11591 | 26952 ft | 427 kts | 88° |
| 2026-05-07 02:35 | 33.60448 | -116.08030 | 26954 ft | 427 kts | 88° |
| 2026-05-07 02:36 | 33.60350 | -116.04475 | 26948 ft | 427 kts | 88° |
| 2026-05-07 02:36 | 33.60325 | -116.00918 | 26954 ft | 425 kts | 85° |
| 2026-05-07 02:36 | 33.60403 | -115.97423 | 26955 ft | 425 kts | 84° |
| 2026-05-07 02:36 | 33.60546 | -115.93891 | 26953 ft | 424 kts | 83° |
| 2026-05-07 02:37 | 33.60715 | -115.90357 | 26954 ft | 424 kts | 83° |
| 2026-05-07 02:37 | 33.60879 | -115.86824 | 26955 ft | 424 kts | 84° |
| 2026-05-07 02:37 | 33.61024 | -115.83289 | 26955 ft | 425 kts | 84° |
| 2026-05-07 02:37 | 33.61147 | -115.79751 | 26956 ft | 425 kts | 84° |
| 2026-05-07 02:38 | 33.61255 | -115.76207 | 26949 ft | 425 kts | 85° |
| 2026-05-07 02:38 | 33.61355 | -115.72661 | 26955 ft | 425 kts | 85° |
| 2026-05-07 02:38 | 33.61453 | -115.69123 | 26955 ft | 425 kts | 85° |
| 2026-05-07 02:38 | 33.61550 | -115.65623 | 26956 ft | 425 kts | 85° |
| 2026-05-07 02:39 | 33.61650 | -115.62078 | 26958 ft | 425 kts | 85° |
| 2026-05-07 02:39 | 33.61754 | -115.58534 | 26958 ft | 425 kts | 85° |
| 2026-05-07 02:39 | 33.61794 | -115.54988 | 26958 ft | 426 kts | 87° |
| 2026-05-07 02:39 | 33.61744 | -115.51431 | 26958 ft | 427 kts | 88° |
| 2026-05-07 02:40 | 33.61637 | -115.47872 | 26957 ft | 427 kts | 89° |
| 2026-05-07 02:40 | 33.61506 | -115.44310 | 26954 ft | 427 kts | 89° |
| 2026-05-07 02:40 | 33.61375 | -115.40749 | 26956 ft | 427 kts | 89° |
| 2026-05-07 02:40 | 33.61256 | -115.37190 | 26952 ft | 427 kts | 89° |
| 2026-05-07 02:41 | 33.61157 | -115.33673 | 26954 ft | 427 kts | 88° |
| 2026-05-07 02:41 | 33.61071 | -115.30113 | 26952 ft | 427 kts | 88° |
| 2026-05-07 02:41 | 33.60993 | -115.26550 | 26948 ft | 428 kts | 88° |
| 2026-05-07 02:41 | 33.60912 | -115.22985 | 26950 ft | 428 kts | 88° |
| 2026-05-07 02:42 | 33.60825 | -115.19415 | 26942 ft | 428 kts | 88° |
| 2026-05-07 02:42 | 33.60735 | -115.15847 | 26948 ft | 428 kts | 89° |
| 2026-05-07 02:42 | 33.60639 | -115.12279 | 26943 ft | 428 kts | 89° |
| 2026-05-07 02:42 | 33.60540 | -115.08709 | 26946 ft | 428 kts | 89° |
| 2026-05-07 02:43 | 33.60437 | -115.05137 | 26949 ft | 428 kts | 89° |
| 2026-05-07 02:43 | 33.60336 | -115.01565 | 26946 ft | 429 kts | 89° |
| 2026-05-07 02:43 | 33.60238 | -114.98038 | 26949 ft | 429 kts | 89° |
| 2026-05-07 02:43 | 33.60137 | -114.94465 | 26949 ft | 429 kts | 89° |
| 2026-05-07 02:44 | 33.60034 | -114.90893 | 26942 ft | 429 kts | 89° |
| 2026-05-07 02:44 | 33.59932 | -114.87322 | 26949 ft | 429 kts | 89° |
| 2026-05-07 02:44 | 33.59831 | -114.83744 | 26949 ft | 429 kts | 89° |
| 2026-05-07 02:44 | 33.59728 | -114.80166 | 26949 ft | 429 kts | 89° |
| 2026-05-07 02:45 | 33.59569 | -114.76591 | 26948 ft | 431 kts | 94° |
| 2026-05-07 02:45 | 33.59010 | -114.73043 | 26944 ft | 434 kts | 100° |
| 2026-05-07 02:45 | 33.58323 | -114.69567 | 26948 ft | 434 kts | 99° |
| 2026-05-07 02:45 | 33.57637 | -114.66042 | 26953 ft | 434 kts | 99° |
| 2026-05-07 02:46 | 33.56958 | -114.62514 | 26955 ft | 434 kts | 99° |
| 2026-05-07 02:46 | 33.56280 | -114.58985 | 26955 ft | 435 kts | 99° |
| 2026-05-07 02:46 | 33.55599 | -114.55451 | 26953 ft | 435 kts | 99° |
| 2026-05-07 02:46 | 33.54914 | -114.51926 | 26953 ft | 435 kts | 99° |
| 2026-05-07 02:47 | 33.54225 | -114.48395 | 26950 ft | 435 kts | 99° |
| 2026-05-07 02:47 | 33.53535 | -114.44872 | 26949 ft | 434 kts | 100° |
| 2026-05-07 02:47 | 33.52842 | -114.41349 | 26955 ft | 434 kts | 100° |
| 2026-05-07 02:47 | 33.52146 | -114.37826 | 26954 ft | 435 kts | 100° |
| 2026-05-07 02:48 | 33.51450 | -114.34301 | 26950 ft | 435 kts | 100° |
| 2026-05-07 02:48 | 33.50764 | -114.30823 | 26795 ft | 435 kts | 100° |
| 2026-05-07 02:48 | 33.50065 | -114.27294 | 26544 ft | 435 kts | 99° |
| 2026-05-07 02:48 | 33.49364 | -114.23760 | 26292 ft | 436 kts | 100° |
| 2026-05-07 02:49 | 33.48663 | -114.20229 | 25952 ft | 435 kts | 100° |
| 2026-05-07 02:49 | 33.47966 | -114.16724 | 25282 ft | 430 kts | 100° |
| 2026-05-07 02:49 | 33.47282 | -114.13304 | 25104 ft | 414 kts | 100° |
| 2026-05-07 02:49 | 33.46622 | -114.10011 | 24893 ft | 401 kts | 100° |
| 2026-05-07 02:50 | 33.45986 | -114.06823 | 25040 ft | 391 kts | 100° |
| 2026-05-07 02:50 | 33.45353 | -114.03641 | 24745 ft | 392 kts | 100° |
| 2026-05-07 02:50 | 33.44729 | -114.00510 | 24597 ft | 392 kts | 100° |
| 2026-05-07 02:50 | 33.44093 | -113.97330 | 24447 ft | 393 kts | 100° |
| 2026-05-07 02:51 | 33.43456 | -113.94145 | 24291 ft | 394 kts | 101° |
| 2026-05-07 02:51 | 33.42818 | -113.90960 | 24137 ft | 393 kts | 101° |
| 2026-05-07 02:51 | 33.42180 | -113.87776 | 23982 ft | 393 kts | 101° |
| 2026-05-07 02:51 | 33.41544 | -113.84599 | 23833 ft | 392 kts | 101° |
| 2026-05-07 02:52 | 33.40906 | -113.81427 | 23675 ft | 392 kts | 101° |
| 2026-05-07 02:52 | 33.40266 | -113.78257 | 23520 ft | 392 kts | 101° |
| 2026-05-07 02:52 | 33.39636 | -113.75137 | 23372 ft | 391 kts | 101° |
| 2026-05-07 02:52 | 33.38997 | -113.71979 | 23218 ft | 390 kts | 101° |
| 2026-05-07 02:53 | 33.38357 | -113.68828 | 23067 ft | 390 kts | 101° |
| 2026-05-07 02:53 | 33.37715 | -113.65682 | 22915 ft | 389 kts | 101° |
| 2026-05-07 02:53 | 33.37079 | -113.62545 | 22773 ft | 388 kts | 101° |
| 2026-05-07 02:53 | 33.36447 | -113.59404 | 22619 ft | 388 kts | 101° |
| 2026-05-07 02:54 | 33.35813 | -113.56274 | 22463 ft | 387 kts | 101° |
| 2026-05-07 02:54 | 33.35174 | -113.53150 | 22319 ft | 386 kts | 102° |
| 2026-05-07 02:54 | 33.34544 | -113.50072 | 22167 ft | 386 kts | 102° |
| 2026-05-07 02:54 | 33.33907 | -113.46962 | 22021 ft | 385 kts | 102° |
| 2026-05-07 02:55 | 33.33289 | -113.43852 | 21805 ft | 384 kts | 101° |
| 2026-05-07 02:55 | 33.32728 | -113.40735 | 21553 ft | 383 kts | 99° |
| 2026-05-07 02:55 | 33.32206 | -113.37621 | 21297 ft | 381 kts | 99° |
| 2026-05-07 02:55 | 33.31698 | -113.34517 | 21046 ft | 380 kts | 99° |
| 2026-05-07 02:56 | 33.31185 | -113.31418 | 20800 ft | 379 kts | 99° |
| 2026-05-07 02:56 | 33.30665 | -113.28334 | 20554 ft | 378 kts | 99° |
| 2026-05-07 02:56 | 33.30139 | -113.25259 | 20307 ft | 377 kts | 100° |
| 2026-05-07 02:56 | 33.29619 | -113.22237 | 20063 ft | 376 kts | 99° |
| 2026-05-07 02:57 | 33.29134 | -113.19168 | 19820 ft | 375 kts | 99° |
| 2026-05-07 02:57 | 33.28690 | -113.16108 | 19573 ft | 373 kts | 98° |
| 2026-05-07 02:57 | 33.28265 | -113.13052 | 19326 ft | 372 kts | 98° |
| 2026-05-07 02:57 | 33.27847 | -113.10007 | 19092 ft | 368 kts | 98° |
| 2026-05-07 02:58 | 33.27489 | -113.07036 | 18878 ft | 356 kts | 92° |
| 2026-05-07 02:58 | 33.27512 | -113.04110 | 18649 ft | 347 kts | 86° |
| 2026-05-07 02:58 | 33.27599 | -113.01230 | 18480 ft | 348 kts | 87° |
| 2026-05-07 02:58 | 33.27670 | -112.98381 | 18233 ft | 347 kts | 87° |
| 2026-05-07 02:59 | 33.27738 | -112.95500 | 17982 ft | 346 kts | 87° |
| 2026-05-07 02:59 | 33.27807 | -112.92629 | 17761 ft | 345 kts | 87° |
| 2026-05-07 02:59 | 33.27877 | -112.89765 | 17517 ft | 344 kts | 87° |
| 2026-05-07 02:59 | 33.27946 | -112.86917 | 17269 ft | 343 kts | 87° |
| 2026-05-07 03:00 | 33.28014 | -112.84102 | 17079 ft | 334 kts | 87° |
| 2026-05-07 03:00 | 33.28095 | -112.81365 | 16851 ft | 326 kts | 85° |
| 2026-05-07 03:00 | 33.28280 | -112.78694 | 16593 ft | 321 kts | 83° |
| 2026-05-07 03:00 | 33.28531 | -112.76059 | 16298 ft | 318 kts | 82° |
| 2026-05-07 03:01 | 33.28803 | -112.73479 | 15994 ft | 316 kts | 81° |
| 2026-05-07 03:01 | 33.29080 | -112.70876 | 15687 ft | 315 kts | 82° |
| 2026-05-07 03:01 | 33.29347 | -112.68286 | 15380 ft | 314 kts | 82° |
| 2026-05-07 03:01 | 33.29603 | -112.65705 | 15075 ft | 312 kts | 82° |
| 2026-05-07 03:02 | 33.29850 | -112.63132 | 14771 ft | 311 kts | 82° |
| 2026-05-07 03:02 | 33.30091 | -112.60571 | 14465 ft | 309 kts | 82° |
| 2026-05-07 03:02 | 33.30329 | -112.58023 | 14166 ft | 308 kts | 82° |
| 2026-05-07 03:02 | 33.30562 | -112.55484 | 13869 ft | 307 kts | 82° |
| 2026-05-07 03:03 | 33.30792 | -112.52961 | 13576 ft | 305 kts | 82° |
| 2026-05-07 03:03 | 33.31017 | -112.50478 | 13278 ft | 304 kts | 82° |
| 2026-05-07 03:03 | 33.31247 | -112.47970 | 12981 ft | 303 kts | 82° |
| 2026-05-07 03:03 | 33.31475 | -112.45473 | 12683 ft | 302 kts | 82° |
| 2026-05-07 03:04 | 33.31702 | -112.42986 | 12379 ft | 300 kts | 82° |
| 2026-05-07 03:04 | 33.31927 | -112.40509 | 12092 ft | 299 kts | 82° |
| 2026-05-07 03:04 | 33.32155 | -112.38039 | 11799 ft | 298 kts | 82° |
| 2026-05-07 03:04 | 33.32382 | -112.35579 | 11508 ft | 298 kts | 82° |
| 2026-05-07 03:05 | 33.32605 | -112.33153 | 11222 ft | 298 kts | 82° |
| 2026-05-07 03:05 | 33.32830 | -112.30694 | 10930 ft | 298 kts | 83° |
| 2026-05-07 03:05 | 33.33054 | -112.28233 | 10640 ft | 298 kts | 83° |
| 2026-05-07 03:05 | 33.33276 | -112.25768 | 10349 ft | 298 kts | 83° |
| 2026-05-07 03:06 | 33.33499 | -112.23305 | 10053 ft | 298 kts | 83° |
| 2026-05-07 03:06 | 33.33724 | -112.20838 | 9758 ft | 299 kts | 83° |
| 2026-05-07 03:06 | 33.33949 | -112.18369 | 9468 ft | 299 kts | 83° |
| 2026-05-07 03:06 | 33.34167 | -112.15934 | 9349 ft | 290 kts | 83° |
| 2026-05-07 03:07 | 33.34378 | -112.13578 | 9228 ft | 280 kts | 83° |
| 2026-05-07 03:07 | 33.34582 | -112.11329 | 9117 ft | 272 kts | 83° |
| 2026-05-07 03:07 | 33.34759 | -112.09113 | 8996 ft | 264 kts | 89° |
| 2026-05-07 03:07 | 33.34746 | -112.06928 | 8710 ft | 262 kts | 90° |
| 2026-05-07 03:08 | 33.34721 | -112.04748 | 8418 ft | 262 kts | 90° |
| 2026-05-07 03:08 | 33.34694 | -112.02602 | 8138 ft | 255 kts | 91° |
| 2026-05-07 03:08 | 33.34665 | -112.00494 | 7881 ft | 252 kts | 91° |
| 2026-05-07 03:08 | 33.34634 | -111.98403 | 7613 ft | 250 kts | 91° |
| 2026-05-07 03:09 | 33.34604 | -111.96329 | 7348 ft | 249 kts | 90° |
| 2026-05-07 03:09 | 33.34576 | -111.94267 | 7091 ft | 247 kts | 91° |
| 2026-05-07 03:09 | 33.34603 | -111.92263 | 6919 ft | 242 kts | 87° |
| 2026-05-07 03:09 | 33.34700 | -111.90257 | 6827 ft | 241 kts | 86° |
| 2026-05-07 03:10 | 33.34802 | -111.88264 | 6582 ft | 240 kts | 86° |
| 2026-05-07 03:10 | 33.34905 | -111.86255 | 6151 ft | 243 kts | 86° |
| 2026-05-07 03:10 | 33.35006 | -111.84253 | 5699 ft | 240 kts | 86° |
| 2026-05-07 03:10 | 33.35102 | -111.82278 | 5246 ft | 237 kts | 86° |
| 2026-05-07 03:11 | 33.35195 | -111.80321 | 4791 ft | 234 kts | 86° |
| 2026-05-07 03:11 | 33.35287 | -111.78386 | 4354 ft | 239 kts | 86° |
| 2026-05-07 03:11 | 33.35677 | -111.76461 | 4034 ft | 237 kts | 62° |
| 2026-05-07 03:11 | 33.36698 | -111.74987 | 4025 ft | 229 kts | 36° |
| 2026-05-07 03:12 | 33.38090 | -111.74206 | 4032 ft | 218 kts | 13° |
| 2026-05-07 03:12 | 33.39573 | -111.74032 | 4063 ft | 214 kts | 355° |
| 2026-05-07 03:12 | 33.41012 | -111.74398 | 4034 ft | 211 kts | 338° |
| 2026-05-07 03:12 | 33.42278 | -111.75263 | 4021 ft | 210 kts | 321° |
| 2026-05-07 03:13 | 33.43261 | -111.76547 | 4024 ft | 210 kts | 303° |
| 2026-05-07 03:13 | 33.43867 | -111.78129 | 4029 ft | 210 kts | 285° |
| 2026-05-07 03:13 | 33.44038 | -111.79844 | 4028 ft | 202 kts | 270° |
| 2026-05-07 03:13 | 33.44042 | -111.81480 | 3949 ft | 197 kts | 270° |
| 2026-05-07 03:14 | 33.44047 | -111.83051 | 3753 ft | 180 kts | 270° |
| 2026-05-07 03:14 | 33.44050 | -111.84455 | 3551 ft | 160 kts | 269° |
| 2026-05-07 03:14 | 33.44057 | -111.87007 | 3144 ft | 150 kts | 270° |
| 2026-05-07 03:15 | 33.44059 | -111.88249 | 2950 ft | 148 kts | 270° |
| 2026-05-07 03:15 | 33.44063 | -111.89482 | 2759 ft | 148 kts | 270° |
| 2026-05-07 03:15 | 33.44066 | -111.90689 | 2561 ft | 146 kts | 270° |
| 2026-05-07 03:15 | 33.44068 | -111.91891 | 2368 ft | 143 kts | 269° |
| 2026-05-07 03:16 | 33.44071 | -111.93079 | 2182 ft | 142 kts | 270° |
| 2026-05-07 03:16 | 33.44073 | -111.94264 | 1986 ft | 142 kts | 269° |
| 2026-05-07 03:16 | 33.44075 | -111.95444 | 1799 ft | 142 kts | 270° |
| 2026-05-07 03:16 | 33.44077 | -111.96628 | 1617 ft | 142 kts | 270° |
| 2026-05-07 03:17 | 33.44081 | -111.97809 | 1421 ft | 142 kts | 270° |
| 2026-05-07 03:17 | 33.44080 | -111.98987 | 1263 ft | 142 kts | 270° |
| 2026-05-07 03:17 | 33.44087 | -112.00172 | 1150 ft | 142 kts | 270° |
| 2026-05-07 03:17 | 33.44083 | -112.01160 | 1135 ft | 83 kts | 269° |
| 2026-05-07 03:18 | 33.44078 | -112.01743 | 1132 ft | 58 kts | 269° |
| 2026-05-07 03:18 | 33.44055 | -112.02020 | 1127 ft | 10 kts | 235° |
| 2026-05-07 03:18 | 33.43999 | -112.02032 | 1129 ft | 7 kts | 158° |
| 2026-05-07 03:18 | 33.43977 | -112.01978 | 1129 ft | 8 kts | 90° |
| 2026-05-07 03:19 | 33.43976 | -112.01892 | 1129 ft | 13 kts | 90° |
| 2026-05-07 03:19 | 33.43975 | -112.01773 | 1130 ft | 15 kts | 90° |
| 2026-05-07 03:19 | 33.43976 | -112.01637 | 1131 ft | 17 kts | 90° |
| 2026-05-07 03:19 | 33.43976 | -112.01483 | 1131 ft | 20 kts | 91° |
| 2026-05-07 03:20 | 33.43975 | -112.01312 | 1131 ft | 21 kts | 90° |
| 2026-05-07 03:20 | 33.43975 | -112.01144 | 1133 ft | 19 kts | 89° |
| 2026-05-07 03:20 | 33.43976 | -112.00993 | 1131 ft | 16 kts | 90° |
| 2026-05-07 03:20 | 33.43974 | -112.00849 | 1133 ft | 18 kts | 90° |
| 2026-05-07 03:21 | 33.43975 | -112.00693 | 1133 ft | 20 kts | 89° |
| 2026-05-07 03:21 | 33.43974 | -112.00534 | 1131 ft | 16 kts | 91° |
| 2026-05-07 03:21 | 33.43973 | -112.00411 | 1131 ft | 15 kts | 90° |
| 2026-05-07 03:21 | 33.43974 | -112.00325 | 1131 ft | 14 kts | 89° |
| 2026-05-07 03:22 | 33.43975 | -112.00159 | 1135 ft | 15 kts | 90° |
| 2026-05-07 03:22 | 33.43945 | -112.00080 | 1136 ft | 12 kts | 162° |
| 2026-05-07 03:22 | 33.43893 | -112.00044 | 1135 ft | 9 kts | 147° |
| 2026-05-07 03:22 | 33.43825 | -112.00032 | 1135 ft | 10 kts | 179° |
| 2026-05-07 03:23 | 33.43756 | -112.00033 | 1136 ft | 11 kts | 181° |
| 2026-05-07 03:23 | 33.43720 | -112.00034 | 1135 ft | 4 kts | 181° |
| 2026-05-07 03:23 | 33.43691 | -112.00032 | 1135 ft | 3 kts | 158° |
| 2026-05-07 03:23 | 33.43683 | -112.00018 | 1131 ft | 2 kts | 117° |
| 2026-05-07 03:24 | 33.43683 | -111.99998 | 1131 ft | 2 kts | 91° |
| 2026-05-07 03:24 | 33.43683 | -111.99984 | 1131 ft | 1 kts | 90° |
| 2026-05-07 03:24 | 33.43683 | -111.99979 | 1131 ft | 0 kts | 90° |